sensor_id;sensor_type;location;lat;lon;timestamp;pressure;altitude;pressure_sealevel;temperature;humidity
29907;BME280;16776;50.958;10.994;2023-04-05T00:01:52;99293.00;;;-0.76;78.00
29907;BME280;16776;50.958;10.994;2023-04-05T00:04:19;99287.06;;;-0.78;78.24
29907;BME280;16776;50.958;10.994;2023-04-05T00:06:47;99280.25;;;-0.80;77.81
29907;BME280;16776;50.958;10.994;2023-04-05T00:09:18;99274.44;;;-0.78;78.19
29907;BME280;16776;50.958;10.994;2023-04-05T00:11:45;99282.78;;;-0.80;78.01
29907;BME280;16776;50.958;10.994;2023-04-05T00:14:12;99274.38;;;-0.79;77.79
29907;BME280;16776;50.958;10.994;2023-04-05T00:16:39;99276.84;;;-0.81;77.85
29907;BME280;16776;50.958;10.994;2023-04-05T00:19:05;99269.22;;;-0.82;78.03
29907;BME280;16776;50.958;10.994;2023-04-05T00:21:32;99271.69;;;-0.84;78.07
29907;BME280;16776;50.958;10.994;2023-04-05T00:23:59;99269.16;;;-0.85;78.04
29907;BME280;16776;50.958;10.994;2023-04-05T00:26:27;99274.19;;;-0.85;78.17
29907;BME280;16776;50.958;10.994;2023-04-05T00:28:53;99270.72;;;-0.89;77.75
29907;BME280;16776;50.958;10.994;2023-04-05T00:31:20;99267.38;;;-0.88;77.94
29907;BME280;16776;50.958;10.994;2023-04-05T00:33:46;99272.38;;;-0.89;78.52
29907;BME280;16776;50.958;10.994;2023-04-05T00:36:14;99269.81;;;-0.91;78.25
29907;BME280;16776;50.958;10.994;2023-04-05T00:38:42;99270.69;;;-0.90;78.20
29907;BME280;16776;50.958;10.994;2023-04-05T00:41:09;99271.50;;;-0.91;78.52
29907;BME280;16776;50.958;10.994;2023-04-05T00:43:37;99269.81;;;-0.91;78.68
29907;BME280;16776;50.958;10.994;2023-04-05T00:46:05;99268.06;;;-0.93;78.04
29907;BME280;16776;50.958;10.994;2023-04-05T00:48:32;99265.47;;;-0.95;78.22
29907;BME280;16776;50.958;10.994;2023-04-05T00:50:59;99263.75;;;-0.96;78.64
29907;BME280;16776;50.958;10.994;2023-04-05T00:53:26;99262.88;;;-0.98;78.11
29907;BME280;16776;50.958;10.994;2023-04-05T00:55:53;99263.56;;;-1.02;78.26
29907;BME280;16776;50.958;10.994;2023-04-05T00:58:21;99260.25;;;-1.01;78.23
29907;BME280;16776;50.958;10.994;2023-04-05T01:00:56;99257.81;;;-0.98;79.02
29907;BME280;16776;50.958;10.994;2023-04-05T01:03:26;99257.66;;;-1.03;78.50
29907;BME280;16776;50.958;10.994;2023-04-05T01:06:03;99256.09;;;-0.99;78.83
29907;BME280;16776;50.958;10.994;2023-04-05T01:08:38;99245.03;;;-1.03;78.63
29907;BME280;16776;50.958;10.994;2023-04-05T01:11:05;99244.84;;;-1.09;77.98
29907;BME280;16776;50.958;10.994;2023-04-05T01:13:34;99246.38;;;-1.14;78.18
29907;BME280;16776;50.958;10.994;2023-04-05T01:16:02;99246.31;;;-1.17;77.87
29907;BME280;16776;50.958;10.994;2023-04-05T01:18:29;99246.06;;;-1.24;78.06
29907;BME280;16776;50.958;10.994;2023-04-05T01:21:04;99247.75;;;-1.25;78.16
29907;BME280;16776;50.958;10.994;2023-04-05T01:23:37;99255.94;;;-1.32;77.97
29907;BME280;16776;50.958;10.994;2023-04-05T01:29:39;99245.66;;;-1.38;79.07
29907;BME280;16776;50.958;10.994;2023-04-05T01:32:17;99250.53;;;-1.44;79.12
29907;BME280;16776;50.958;10.994;2023-04-05T01:34:49;99247.94;;;-1.46;78.77
29907;BME280;16776;50.958;10.994;2023-04-05T01:37:19;99243.75;;;-1.45;78.63
29907;BME280;16776;50.958;10.994;2023-04-05T01:39:48;99240.31;;;-1.47;78.90
29907;BME280;16776;50.958;10.994;2023-04-05T01:42:22;99244.66;;;-1.43;79.27
29907;BME280;16776;50.958;10.994;2023-04-05T01:44:51;99244.59;;;-1.45;78.98
29907;BME280;16776;50.958;10.994;2023-04-05T01:47:18;99244.56;;;-1.46;78.34
29907;BME280;16776;50.958;10.994;2023-04-05T01:49:44;99245.34;;;-1.47;78.81
29907;BME280;16776;50.958;10.994;2023-04-05T01:52:11;99237.75;;;-1.49;78.89
29907;BME280;16776;50.958;10.994;2023-04-05T01:54:37;99238.50;;;-1.51;78.34
29907;BME280;16776;50.958;10.994;2023-04-05T01:57:04;99232.53;;;-1.55;78.33
29907;BME280;16776;50.958;10.994;2023-04-05T01:59:31;99234.13;;;-1.57;78.69
29907;BME280;16776;50.958;10.994;2023-04-05T02:01:59;99225.63;;;-1.59;78.50
29907;BME280;16776;50.958;10.994;2023-04-05T02:04:25;99230.50;;;-1.65;78.69
29907;BME280;16776;50.958;10.994;2023-04-05T02:06:52;99224.44;;;-1.70;78.47
29907;BME280;16776;50.958;10.994;2023-04-05T02:09:19;99225.97;;;-1.75;78.25
29907;BME280;16776;50.958;10.994;2023-04-05T02:11:45;99226.66;;;-1.79;78.45
29907;BME280;16776;50.958;10.994;2023-04-05T02:14:12;99215.50;;;-1.87;78.62
29907;BME280;16776;50.958;10.994;2023-04-05T02:16:38;99218.81;;;-1.88;78.82
29907;BME280;16776;50.958;10.994;2023-04-05T02:19:06;99214.53;;;-1.91;78.80
29907;BME280;16776;50.958;10.994;2023-04-05T02:21:33;99210.19;;;-1.95;78.47
29907;BME280;16776;50.958;10.994;2023-04-05T02:24:01;99208.41;;;-1.97;78.25
29907;BME280;16776;50.958;10.994;2023-04-05T02:26:27;99207.53;;;-1.99;78.37
29907;BME280;16776;50.958;10.994;2023-04-05T02:28:54;99210.81;;;-2.02;78.60
29907;BME280;16776;50.958;10.994;2023-04-05T02:31:21;99224.16;;;-2.04;78.89
29907;BME280;16776;50.958;10.994;2023-04-05T02:33:47;99220.63;;;-2.09;78.42
29907;BME280;16776;50.958;10.994;2023-04-05T02:36:15;99182.91;;;-2.32;78.37
29907;BME280;16776;50.958;10.994;2023-04-05T02:38:42;99215.38;;;-2.15;78.63
29907;BME280;16776;50.958;10.994;2023-04-05T02:41:09;99206.81;;;-2.21;78.27
29907;BME280;16776;50.958;10.994;2023-04-05T02:43:37;99210.03;;;-2.25;78.13
29907;BME280;16776;50.958;10.994;2023-04-05T02:46:06;99213.25;;;-2.29;78.66
29907;BME280;16776;50.958;10.994;2023-04-05T02:48:32;99213.13;;;-2.33;78.67
29907;BME280;16776;50.958;10.994;2023-04-05T02:50:59;99208.75;;;-2.37;78.16
29907;BME280;16776;50.958;10.994;2023-04-05T02:53:27;99216.22;;;-2.40;78.19
29907;BME280;16776;50.958;10.994;2023-04-05T02:55:54;99224.50;;;-2.44;78.49
29907;BME280;16776;50.958;10.994;2023-04-05T02:58:21;99226.06;;;-2.48;78.62
29907;BME280;16776;50.958;10.994;2023-04-05T03:00:48;99226.81;;;-2.50;78.81
29907;BME280;16776;50.958;10.994;2023-04-05T03:03:16;99227.56;;;-2.53;78.46
29907;BME280;16776;50.958;10.994;2023-04-05T03:05:42;99226.59;;;-2.57;78.53
29907;BME280;16776;50.958;10.994;2023-04-05T03:08:09;99218.78;;;-2.64;78.70
29907;BME280;16776;50.958;10.994;2023-04-05T03:10:51;99227.44;;;-2.56;79.61
29907;BME280;16776;50.958;10.994;2023-04-05T03:13:17;99229.75;;;-2.62;78.74
29907;BME280;16776;50.958;10.994;2023-04-05T03:15:44;99230.56;;;-2.63;78.57
29907;BME280;16776;50.958;10.994;2023-04-05T03:18:11;99191.94;;;-2.86;79.16
29907;BME280;16776;50.958;10.994;2023-04-05T03:20:37;99230.56;;;-2.63;79.44
29907;BME280;16776;50.958;10.994;2023-04-05T03:23:05;99228.88;;;-2.64;78.78
29907;BME280;16776;50.958;10.994;2023-04-05T03:25:33;99225.41;;;-2.66;79.25
29907;BME280;16776;50.958;10.994;2023-04-05T03:28:02;99228.00;;;-2.65;79.56
29907;BME280;16776;50.958;10.994;2023-04-05T03:30:30;99230.53;;;-2.65;79.42
29907;BME280;16776;50.958;10.994;2023-04-05T03:32:56;99232.19;;;-2.65;79.17
29907;BME280;16776;50.958;10.994;2023-04-05T03:35:26;99230.47;;;-2.66;79.02
29907;BME280;16776;50.958;10.994;2023-04-05T03:37:52;99237.22;;;-2.65;79.71
29907;BME280;16776;50.958;10.994;2023-04-05T03:40:19;99230.47;;;-2.66;79.74
29907;BME280;16776;50.958;10.994;2023-04-05T03:42:46;99227.94;;;-2.66;79.75
29907;BME280;16776;50.958;10.994;2023-04-05T03:45:14;99227.13;;;-2.65;79.98
29907;BME280;16776;50.958;10.994;2023-04-05T03:47:41;99222.97;;;-2.65;79.10
29907;BME280;16776;50.958;10.994;2023-04-05T03:50:10;99217.16;;;-2.62;79.83
29907;BME280;16776;50.958;10.994;2023-04-05T03:52:37;99221.25;;;-2.66;79.27
29907;BME280;16776;50.958;10.994;2023-04-05T03:55:04;99227.88;;;-2.68;79.06
29907;BME280;16776;50.958;10.994;2023-04-05T03:57:31;99218.59;;;-2.69;79.35
29907;BME280;16776;50.958;10.994;2023-04-05T03:59:58;99224.41;;;-2.71;78.91
29907;BME280;16776;50.958;10.994;2023-04-05T04:02:25;99218.50;;;-2.72;79.32
29907;BME280;16776;50.958;10.994;2023-04-05T04:04:52;99225.06;;;-2.75;79.10
29907;BME280;16776;50.958;10.994;2023-04-05T04:07:18;99216.66;;;-2.76;79.49
29907;BME280;16776;50.958;10.994;2023-04-05T04:09:45;99219.16;;;-2.77;79.28
29907;BME280;16776;50.958;10.994;2023-04-05T04:12:12;99214.91;;;-2.78;79.32
29907;BME280;16776;50.958;10.994;2023-04-05T04:14:38;99217.38;;;-2.80;79.22
29907;BME280;16776;50.958;10.994;2023-04-05T04:17:05;99221.53;;;-2.80;79.31
29907;BME280;16776;50.958;10.994;2023-04-05T04:19:33;99225.72;;;-2.81;79.51
29907;BME280;16776;50.958;10.994;2023-04-05T04:21:59;99215.56;;;-2.82;79.92
29907;BME280;16776;50.958;10.994;2023-04-05T04:24:26;99224.00;;;-2.82;79.80
29907;BME280;16776;50.958;10.994;2023-04-05T04:26:56;99221.44;;;-2.83;79.95
29907;BME280;16776;50.958;10.994;2023-04-05T04:29:23;99212.22;;;-2.83;80.08
29907;BME280;16776;50.958;10.994;2023-04-05T04:31:54;99223.13;;;-2.82;79.63
29907;BME280;16776;50.958;10.994;2023-04-05T04:34:21;99226.53;;;-2.82;79.79
29907;BME280;16776;50.958;10.994;2023-04-05T04:36:51;99224.88;;;-2.81;80.30
29907;BME280;16776;50.958;10.994;2023-04-05T04:39:25;99224.88;;;-2.81;79.51
29907;BME280;16776;50.958;10.994;2023-04-05T04:41:52;99220.69;;;-2.81;80.96
29907;BME280;16776;50.958;10.994;2023-04-05T04:44:21;99225.47;;;-2.65;82.44
29907;BME280;16776;50.958;10.994;2023-04-05T04:46:52;99226.00;;;-2.49;82.56
29907;BME280;16776;50.958;10.994;2023-04-05T04:49:19;99218.03;;;-2.36;81.38
29907;BME280;16776;50.958;10.994;2023-04-05T04:51:45;99214.97;;;-2.28;80.86
29907;BME280;16776;50.958;10.994;2023-04-05T04:54:13;99209.22;;;-2.24;81.20
29907;BME280;16776;50.958;10.994;2023-04-05T04:56:41;99217.59;;;-2.25;80.47
29907;BME280;16776;50.958;10.994;2023-04-05T04:59:07;99213.38;;;-2.26;80.65
29907;BME280;16776;50.958;10.994;2023-04-05T05:01:36;99206.63;;;-2.27;80.20
29907;BME280;16776;50.958;10.994;2023-04-05T05:04:05;99209.72;;;-2.34;79.64
29907;BME280;16776;50.958;10.994;2023-04-05T05:06:31;99205.34;;;-2.39;79.51
29907;BME280;16776;50.958;10.994;2023-04-05T05:08:58;99206.81;;;-2.46;79.18
29907;BME280;16776;50.958;10.994;2023-04-05T05:11:26;99200.75;;;-2.51;79.38
29907;BME280;16776;50.958;10.994;2023-04-05T05:13:53;99202.13;;;-2.59;79.93
29907;BME280;16776;50.958;10.994;2023-04-05T05:16:23;99212.97;;;-2.62;79.91
29907;BME280;16776;50.958;10.994;2023-04-05T05:18:51;99197.56;;;-2.69;79.34
29907;BME280;16776;50.958;10.994;2023-04-05T05:21:18;99204.13;;;-2.74;79.71
29907;BME280;16776;50.958;10.994;2023-04-05T05:23:45;99204.81;;;-2.78;80.10
29907;BME280;16776;50.958;10.994;2023-04-05T05:26:11;99205.56;;;-2.81;80.52
29907;BME280;16776;50.958;10.994;2023-04-05T05:28:40;99208.13;;;-2.79;80.37
29907;BME280;16776;50.958;10.994;2023-04-05T05:31:06;99211.59;;;-2.77;80.83
29907;BME280;16776;50.958;10.994;2023-04-05T05:33:33;99201.59;;;-2.74;80.77
29907;BME280;16776;50.958;10.994;2023-04-05T05:35:59;99207.66;;;-2.69;80.62
29907;BME280;16776;50.958;10.994;2023-04-05T05:38:27;99202.72;;;-2.66;80.48
29907;BME280;16776;50.958;10.994;2023-04-05T05:40:54;99207.06;;;-2.62;81.08
29907;BME280;16776;50.958;10.994;2023-04-05T05:43:21;99205.47;;;-2.60;81.17
29907;BME280;16776;50.958;10.994;2023-04-05T05:45:49;99198.09;;;-2.54;81.22
29907;BME280;16776;50.958;10.994;2023-04-05T05:48:16;99204.16;;;-2.49;81.30
29907;BME280;16776;50.958;10.994;2023-04-05T05:50:43;99206.09;;;-2.42;82.21
29907;BME280;16776;50.958;10.994;2023-04-05T05:53:13;99208.22;;;-2.29;81.83
29907;BME280;16776;50.958;10.994;2023-04-05T05:55:39;99210.34;;;-2.15;82.56
29907;BME280;16776;50.958;10.994;2023-04-05T05:58:06;99201.63;;;-2.00;82.26
29907;BME280;16776;50.958;10.994;2023-04-05T06:00:33;99191.13;;;-1.85;82.42
29907;BME280;16776;50.958;10.994;2023-04-05T06:03:01;99195.88;;;-1.69;82.49
29907;BME280;16776;50.958;10.994;2023-04-05T06:05:31;99200.50;;;-1.56;82.68
29907;BME280;16776;50.958;10.994;2023-04-05T06:07:57;99194.03;;;-1.46;83.04
29907;BME280;16776;50.958;10.994;2023-04-05T06:10:24;99192.16;;;-1.25;83.03
29907;BME280;16776;50.958;10.994;2023-04-05T06:12:51;99191.59;;;-1.15;83.42
29907;BME280;16776;50.958;10.994;2023-04-05T06:15:19;99201.56;;;-0.91;83.33
29907;BME280;16776;50.958;10.994;2023-04-05T06:17:45;99199.50;;;-0.74;83.05
29907;BME280;16776;50.958;10.994;2023-04-05T06:20:13;99197.41;;;-0.58;83.77
29907;BME280;16776;50.958;10.994;2023-04-05T06:22:40;99191.09;;;-0.42;83.86
29907;BME280;16776;50.958;10.994;2023-04-05T06:25:08;99183.00;;;-0.29;84.19
29907;BME280;16776;50.958;10.994;2023-04-05T06:27:36;99193.66;;;-0.07;84.18
29907;BME280;16776;50.958;10.994;2023-04-05T06:30:03;99197.50;;;0.11;83.94
29907;BME280;16776;50.958;10.994;2023-04-05T06:32:30;99193.69;;;0.29;83.54
29907;BME280;16776;50.958;10.994;2023-04-05T06:34:56;99194.84;;;0.43;83.63
29907;BME280;16776;50.958;10.994;2023-04-05T06:37:24;99200.25;;;0.58;84.09
29907;BME280;16776;50.958;10.994;2023-04-05T06:39:51;99197.22;;;0.73;83.74
29907;BME280;16776;50.958;10.994;2023-04-05T06:42:18;99196.72;;;0.87;83.60
29907;BME280;16776;50.958;10.994;2023-04-05T06:44:44;99191.91;;;0.99;83.57
29907;BME280;16776;50.958;10.994;2023-04-05T06:47:11;99203.88;;;1.08;83.61
29907;BME280;16776;50.958;10.994;2023-04-05T06:49:40;99187.84;;;1.08;83.39
29907;BME280;16776;50.958;10.994;2023-04-05T06:52:07;99204.25;;;1.25;82.83
29907;BME280;16776;50.958;10.994;2023-04-05T06:54:36;99202.75;;;1.36;83.49
29907;BME280;16776;50.958;10.994;2023-04-05T06:57:03;99205.38;;;1.40;82.89
29907;BME280;16776;50.958;10.994;2023-04-05T06:59:30;99201.25;;;1.44;82.71
29907;BME280;16776;50.958;10.994;2023-04-05T07:01:56;99207.22;;;1.46;82.81
29907;BME280;16776;50.958;10.994;2023-04-05T07:04:23;99205.50;;;1.45;82.66
29907;BME280;16776;50.958;10.994;2023-04-05T07:06:50;99205.50;;;1.45;82.13
29907;BME280;16776;50.958;10.994;2023-04-05T07:09:18;99201.25;;;1.44;82.39
29907;BME280;16776;50.958;10.994;2023-04-05T07:11:46;99206.38;;;1.49;83.22
29907;BME280;16776;50.958;10.994;2023-04-05T07:14:14;99205.56;;;1.50;82.90
29907;BME280;16776;50.958;10.994;2023-04-05T07:16:40;99210.72;;;1.53;83.03
29907;BME280;16776;50.958;10.994;2023-04-05T07:19:07;99202.41;;;1.61;83.06
29907;BME280;16776;50.958;10.994;2023-04-05T07:21:33;99195.00;;;1.72;83.91
29907;BME280;16776;50.958;10.994;2023-04-05T07:24:00;99188.38;;;1.81;83.37
29907;BME280;16776;50.958;10.994;2023-04-05T07:26:27;99185.06;;;1.87;82.86
29907;BME280;16776;50.958;10.994;2023-04-05T07:28:55;99188.56;;;1.94;83.08
29907;BME280;16776;50.958;10.994;2023-04-05T07:31:22;99186.97;;;1.97;82.61
29907;BME280;16776;50.958;10.994;2023-04-05T07:33:48;99193.75;;;2.00;83.20
29907;BME280;16776;50.958;10.994;2023-04-05T07:36:15;99196.38;;;2.04;83.66
29907;BME280;16776;50.958;10.994;2023-04-05T07:38:41;99196.47;;;2.09;83.66
29907;BME280;16776;50.958;10.994;2023-04-05T07:41:09;99186.31;;;2.09;83.22
29907;BME280;16776;50.958;10.994;2023-04-05T07:43:35;99193.28;;;2.22;83.09
29907;BME280;16776;50.958;10.994;2023-04-05T07:46:04;99190.94;;;2.34;84.12
29907;BME280;16776;50.958;10.994;2023-04-05T07:48:30;99195.25;;;2.40;83.18
29907;BME280;16776;50.958;10.994;2023-04-05T07:51:02;99193.75;;;2.52;83.21
29907;BME280;16776;50.958;10.994;2023-04-05T07:53:33;99198.09;;;2.59;83.67
29907;BME280;16776;50.958;10.994;2023-04-05T07:56:04;99199.09;;;2.71;83.16
29907;BME280;16776;50.958;10.994;2023-04-05T07:58:31;99201.72;;;2.78;83.58
29907;BME280;16776;50.958;10.994;2023-04-05T08:00:59;99199.28;;;2.87;84.12
29907;BME280;16776;50.958;10.994;2023-04-05T08:03:27;99200.28;;;2.97;84.06
29907;BME280;16776;50.958;10.994;2023-04-05T08:05:54;99202.09;;;3.05;84.09
29907;BME280;16776;50.958;10.994;2023-04-05T08:08:23;99196.31;;;3.20;84.65
29907;BME280;16776;50.958;10.994;2023-04-05T08:10:50;99195.66;;;3.33;84.52
29907;BME280;16776;50.958;10.994;2023-04-05T08:13:16;99191.63;;;3.51;84.20
29907;BME280;16776;50.958;10.994;2023-04-05T08:15:43;99188.41;;;3.68;84.14
29907;BME280;16776;50.958;10.994;2023-04-05T08:18:09;99181.78;;;3.87;84.61
29907;BME280;16776;50.958;10.994;2023-04-05T08:20:38;99187.06;;;4.07;84.39
29907;BME280;16776;50.958;10.994;2023-04-05T08:23:04;99182.94;;;4.24;84.23
29907;BME280;16776;50.958;10.994;2023-04-05T08:25:32;99188.16;;;4.38;83.78
29907;BME280;16776;50.958;10.994;2023-04-05T08:27:58;99179.72;;;4.49;83.18
29907;BME280;16776;50.958;10.994;2023-04-05T08:30:25;99180.63;;;4.60;83.38
29907;BME280;16776;50.958;10.994;2023-04-05T08:32:51;99179.00;;;4.72;83.94
29907;BME280;16776;50.958;10.994;2023-04-05T08:35:18;99177.38;;;4.87;83.31
29907;BME280;16776;50.958;10.994;2023-04-05T08:37:46;99180.00;;;5.05;83.64
29907;BME280;16776;50.958;10.994;2023-04-05T08:40:13;99175.00;;;5.18;82.66
29907;BME280;16776;50.958;10.994;2023-04-05T08:42:41;99163.13;;;5.29;83.43
29907;BME280;16776;50.958;10.994;2023-04-05T08:45:13;99168.28;;;5.53;82.99
29907;BME280;16776;50.958;10.994;2023-04-05T08:47:41;99164.91;;;5.69;83.46
29907;BME280;16776;50.958;10.994;2023-04-05T08:50:09;99168.34;;;5.90;82.80
29907;BME280;16776;50.958;10.994;2023-04-05T08:52:38;99162.38;;;6.09;82.42
29907;BME280;16776;50.958;10.994;2023-04-05T08:55:08;99165.78;;;6.24;82.63
29907;BME280;16776;50.958;10.994;2023-04-05T08:57:36;99158.09;;;6.37;82.00
29907;BME280;16776;50.958;10.994;2023-04-05T09:00:09;99165.75;;;6.50;81.12
29907;BME280;16776;50.958;10.994;2023-04-05T09:02:36;99170.88;;;6.55;81.19
29907;BME280;16776;50.958;10.994;2023-04-05T09:05:08;99166.59;;;6.58;79.63
29907;BME280;16776;50.958;10.994;2023-04-05T09:07:35;99171.72;;;6.52;80.17
29907;BME280;16776;50.958;10.994;2023-04-05T09:10:05;99164.91;;;6.50;79.29
29907;BME280;16776;50.958;10.994;2023-04-05T09:12:34;99157.22;;;6.41;78.61
29907;BME280;16776;50.958;10.994;2023-04-05T09:15:03;99169.19;;;6.28;79.45
29907;BME280;16776;50.958;10.994;2023-04-05T09:17:31;99165.81;;;6.18;78.90
29907;BME280;16776;50.958;10.994;2023-04-05T09:19:59;99164.09;;;6.05;78.30
29907;BME280;16776;50.958;10.994;2023-04-05T09:22:26;99161.53;;;5.93;78.59
29907;BME280;16776;50.958;10.994;2023-04-05T09:24:52;99135.94;;;5.63;78.09
29907;BME280;16776;50.958;10.994;2023-04-05T09:27:21;99163.22;;;5.71;77.64
29907;BME280;16776;50.958;10.994;2023-04-05T09:29:49;99159.81;;;5.66;77.95
29907;BME280;16776;50.958;10.994;2023-04-05T09:32:17;99158.06;;;5.56;78.36
29907;BME280;16776;50.958;10.994;2023-04-05T09:34:50;99162.34;;;5.50;78.48
29907;BME280;16776;50.958;10.994;2023-04-05T09:37:19;99162.31;;;5.45;76.93
29907;BME280;16776;50.958;10.994;2023-04-05T09:39:50;99161.47;;;5.37;77.20
29907;BME280;16776;50.958;10.994;2023-04-05T09:42:29;99146.94;;;5.31;77.81
29907;BME280;16776;50.958;10.994;2023-04-05T09:45:04;99147.81;;;5.29;77.72
29907;BME280;16776;50.958;10.994;2023-04-05T09:47:32;99137.56;;;5.23;77.96
29907;BME280;16776;50.958;10.994;2023-04-05T09:50:00;99146.09;;;5.32;78.29
29907;BME280;16776;50.958;10.994;2023-04-05T09:52:30;99147.81;;;5.38;78.31
29907;BME280;16776;50.958;10.994;2023-04-05T09:54:59;99148.69;;;5.46;78.39
29907;BME280;16776;50.958;10.994;2023-04-05T09:57:27;99147.84;;;5.50;77.84
29907;BME280;16776;50.958;10.994;2023-04-05T09:59:55;99138.47;;;5.44;78.25
29907;BME280;16776;50.958;10.994;2023-04-05T10:02:23;99138.47;;;5.52;77.29
29907;BME280;16776;50.958;10.994;2023-04-05T10:04:50;99143.59;;;5.52;78.11
29907;BME280;16776;50.958;10.994;2023-04-05T10:07:18;99142.72;;;5.56;77.71
29907;BME280;16776;50.958;10.994;2023-04-05T10:12:23;99136.78;;;5.63;77.36
29907;BME280;16776;50.958;10.994;2023-04-05T10:14:51;99142.75;;;5.61;77.86
29907;BME280;16776;50.958;10.994;2023-04-05T10:17:25;99121.47;;;5.59;78.17
29907;BME280;16776;50.958;10.994;2023-04-05T10:20:06;99138.50;;;5.78;77.78
29907;BME280;16776;50.958;10.994;2023-04-05T10:22:39;99133.41;;;5.89;78.17
29907;BME280;16776;50.958;10.994;2023-04-05T10:25:10;99135.97;;;6.04;78.72
29907;BME280;16776;50.958;10.994;2023-04-05T10:27:45;99129.13;;;6.21;77.86
29907;BME280;16776;50.958;10.994;2023-04-05T10:30:14;99130.81;;;6.36;78.52
29907;BME280;16776;50.958;10.994;2023-04-05T10:32:52;99134.19;;;6.57;77.74
29907;BME280;16776;50.958;10.994;2023-04-05T10:35:28;99135.00;;;6.69;77.81
29907;BME280;16776;50.958;10.994;2023-04-05T10:38:11;99129.03;;;6.76;76.73
29907;BME280;16776;50.958;10.994;2023-04-05T10:40:38;99126.47;;;6.74;77.53
29907;BME280;16776;50.958;10.994;2023-04-05T10:43:13;99129.03;;;6.79;75.59
29907;BME280;16776;50.958;10.994;2023-04-05T10:45:41;99126.47;;;6.71;76.16
29907;BME280;16776;50.958;10.994;2023-04-05T10:48:15;99121.34;;;6.71;76.27
29907;BME280;16776;50.958;10.994;2023-04-05T10:50:49;99127.31;;;6.69;75.82
29907;BME280;16776;50.958;10.994;2023-04-05T10:53:16;99121.34;;;6.65;75.44
29907;BME280;16776;50.958;10.994;2023-04-05T10:55:45;99117.09;;;6.62;75.84
29907;BME280;16776;50.958;10.994;2023-04-05T10:58:12;99117.09;;;6.59;76.09
29907;BME280;16776;50.958;10.994;2023-04-05T11:00:41;99114.56;;;6.58;76.42
29907;BME280;16776;50.958;10.994;2023-04-05T11:03:08;99106.00;;;6.59;76.78
29907;BME280;16776;50.958;10.994;2023-04-05T11:05:36;99109.41;;;6.65;75.86
29907;BME280;16776;50.958;10.994;2023-04-05T11:08:05;99101.75;;;6.75;75.46
29907;BME280;16776;50.958;10.994;2023-04-05T11:10:34;99105.97;;;6.85;76.79
29907;BME280;16776;50.958;10.994;2023-04-05T11:13:06;99089.75;;;6.90;76.19
29907;BME280;16776;50.958;10.994;2023-04-05T11:15:34;99099.03;;;7.07;76.22
29907;BME280;16776;50.958;10.994;2023-04-05T11:18:05;99091.28;;;7.19;77.31
29907;BME280;16776;50.958;10.994;2023-04-05T11:20:45;99085.19;;;7.39;77.32
29907;BME280;16776;50.958;10.994;2023-04-05T11:23:12;99092.78;;;7.52;76.17
29907;BME280;16776;50.958;10.994;2023-04-05T11:25:47;99086.63;;;7.74;76.19
29907;BME280;16776;50.958;10.994;2023-04-05T11:28:27;99093.28;;;7.95;76.24
29907;BME280;16776;50.958;10.994;2023-04-05T11:30:55;99096.66;;;8.04;76.36
29907;BME280;16776;50.958;10.994;2023-04-05T11:33:39;99085.38;;;8.22;75.38
29907;BME280;16776;50.958;10.994;2023-04-05T11:36:30;99082.59;;;8.43;75.47
29907;BME280;16776;50.958;10.994;2023-04-05T11:39:25;99073.06;;;8.56;75.53
29907;BME280;16776;50.958;10.994;2023-04-05T11:41:58;99073.84;;;8.62;76.55
29907;BME280;16776;50.958;10.994;2023-04-05T11:44:26;99070.25;;;8.74;76.36
29907;BME280;16776;50.958;10.994;2023-04-05T11:46:53;99071.78;;;8.89;75.55
29907;BME280;16776;50.958;10.994;2023-04-05T11:49:21;99069.94;;;8.98;75.25
29907;BME280;16776;50.958;10.994;2023-04-05T11:51:54;99067.25;;;9.08;74.97
29907;BME280;16776;50.958;10.994;2023-04-05T11:54:28;99061.97;;;9.17;74.97
29907;BME280;16776;50.958;10.994;2023-04-05T11:56:56;99060.25;;;9.17;74.94
29907;BME280;16776;50.958;10.994;2023-04-05T11:59:30;99060.06;;;9.31;74.80
29907;BME280;16776;50.958;10.994;2023-04-05T12:01:57;99062.66;;;9.29;74.90
29907;BME280;16776;50.958;10.994;2023-04-05T12:04:24;99044.66;;;9.29;74.44
29907;BME280;16776;50.958;10.994;2023-04-05T12:07:10;99050.56;;;9.37;74.43
29907;BME280;16776;50.958;10.994;2023-04-05T12:10:01;99042.88;;;9.37;74.53
29907;BME280;16776;50.958;10.994;2023-04-05T12:12:32;99041.16;;;9.38;75.26
29907;BME280;16776;50.958;10.994;2023-04-05T12:15:01;99040.28;;;9.39;75.17
29907;BME280;16776;50.958;10.994;2023-04-05T12:17:39;99035.81;;;9.50;74.32
29907;BME280;16776;50.958;10.994;2023-04-05T12:20:07;99038.38;;;9.52;75.36
29907;BME280;16776;50.958;10.994;2023-04-05T12:22:36;99040.75;;;9.62;75.43
29907;BME280;16776;50.958;10.994;2023-04-05T12:25:06;99039.72;;;9.72;75.68
29907;BME280;16776;50.958;10.994;2023-04-05T12:27:33;99038.69;;;9.84;75.49
29907;BME280;16776;50.958;10.994;2023-04-05T12:30:11;99029.78;;;10.02;75.38
29907;BME280;16776;50.958;10.994;2023-04-05T12:32:40;99028.78;;;10.09;76.08
29907;BME280;16776;50.958;10.994;2023-04-05T12:35:10;99023.31;;;10.25;75.72
29907;BME280;16776;50.958;10.994;2023-04-05T12:37:38;99026.53;;;10.37;75.74
29907;BME280;16776;50.958;10.994;2023-04-05T12:40:06;99021.22;;;10.44;76.03
29907;BME280;16776;50.958;10.994;2023-04-05T12:42:33;99020.31;;;10.48;73.82
29907;BME280;16776;50.958;10.994;2023-04-05T12:45:05;99009.25;;;10.43;73.95
29907;BME280;16776;50.958;10.994;2023-04-05T12:47:33;99009.31;;;10.40;73.86
29907;BME280;16776;50.958;10.994;2023-04-05T12:50:10;99008.44;;;10.41;73.82
29907;BME280;16776;50.958;10.994;2023-04-05T12:52:36;99010.47;;;10.24;71.78
29907;BME280;16776;50.958;10.994;2023-04-05T12:55:13;99004.66;;;10.16;72.29
29907;BME280;16776;50.958;10.994;2023-04-05T12:57:40;98998.25;;;9.91;72.15
29907;BME280;16776;50.958;10.994;2023-04-05T13:00:08;98996.78;;;9.77;72.79
29907;BME280;16776;50.958;10.994;2023-04-05T13:02:35;98993.56;;;9.65;73.07
29907;BME280;16776;50.958;10.994;2023-04-05T13:05:01;98987.59;;;9.63;72.75
29907;BME280;16776;50.958;10.994;2023-04-05T13:07:28;98985.03;;;9.61;72.38
29907;BME280;16776;50.958;10.994;2023-04-05T13:09:54;98981.72;;;9.56;72.98